createdAt,value
2019-05-13T00:02:55.777Z,8.80
2019-05-13T00:06:01.338Z,8.90
2019-05-13T00:09:07.348Z,8.80
2019-05-13T00:12:13.631Z,8.60
2019-05-13T00:15:17.743Z,8.60
2019-05-13T00:18:24.289Z,8.70
2019-05-13T00:21:28.678Z,8.60
2019-05-13T00:24:35.821Z,8.50
2019-05-13T00:27:40.107Z,8.50
2019-05-13T00:30:44.724Z,8.40
2019-05-13T00:33:49.267Z,8.40
2019-05-13T00:37:07.410Z,8.40
2019-05-13T00:40:03.812Z,8.30
2019-05-13T00:43:07.244Z,8.30
2019-05-13T00:46:14.064Z,8.30
2019-05-13T00:49:17.803Z,8.20
2019-05-13T00:52:23.554Z,8.10
2019-05-13T00:55:27.975Z,8.20
2019-05-13T00:58:33.513Z,8.10
2019-05-13T01:01:37.954Z,8.00
2019-05-13T01:04:44.179Z,8.00
2019-05-13T01:07:48.340Z,8.00
2019-05-13T01:10:53.697Z,8.00
2019-05-13T01:13:58.226Z,7.90
2019-05-13T01:17:03.838Z,7.90
2019-05-13T01:20:09.015Z,7.80
2019-05-13T01:23:14.175Z,7.60
2019-05-13T01:26:18.699Z,7.60
2019-05-13T01:29:23.854Z,7.60
2019-05-13T01:32:30.284Z,7.50
2019-05-13T01:35:34.618Z,7.40
2019-05-13T01:38:38.986Z,7.40
2019-05-13T01:41:43.818Z,7.30
2019-05-13T01:44:53.388Z,7.20
2019-05-13T01:47:57.597Z,7.30
2019-05-13T01:51:03.814Z,7.20
2019-05-13T01:54:08.018Z,7.20
2019-05-13T01:57:14.249Z,7.10
2019-05-13T02:00:19.068Z,7.10
2019-05-13T02:03:24.568Z,7.10
2019-05-13T02:06:29.140Z,7.10
2019-05-13T02:09:33.991Z,7.00
2019-05-13T02:12:38.421Z,7.00
2019-05-13T02:15:45.123Z,6.90
2019-05-13T02:18:48.839Z,6.90
2019-05-13T02:21:54.297Z,6.70
2019-05-13T02:24:58.769Z,6.70
2019-05-13T02:28:09.468Z,6.70
2019-05-13T02:31:12.488Z,6.60
2019-05-13T02:34:16.650Z,6.50
2019-05-13T02:37:23.171Z,6.50
2019-05-13T02:40:27.131Z,6.40
2019-05-13T02:43:33.331Z,6.40
2019-05-13T02:46:37.552Z,6.40
2019-05-13T02:49:43.063Z,6.20
2019-05-13T02:52:47.629Z,6.20
2019-05-13T02:55:52.669Z,6.20
2019-05-13T02:58:57.106Z,6.30
2019-05-13T03:02:03.653Z,6.20
2019-05-13T03:05:07.962Z,6.00
2019-05-13T03:08:12.958Z,6.10
2019-05-13T03:11:17.487Z,6.00
2019-05-13T03:14:23.817Z,5.90
2019-05-13T03:17:32.977Z,5.80
2019-05-13T03:20:37.538Z,5.80
2019-05-13T03:23:43.967Z,5.80
2019-05-13T03:26:47.862Z,5.70
2019-05-13T03:29:53.383Z,5.60
2019-05-13T03:33:01.704Z,5.60
2019-05-13T03:36:06.635Z,5.50
2019-05-13T03:39:15.291Z,5.50
2019-05-13T03:42:16.205Z,5.40
2019-05-13T03:45:24.359Z,5.40
2019-05-13T03:48:29.324Z,5.30
2019-05-13T03:51:33.676Z,5.40
2019-05-13T03:54:38.224Z,5.30
2019-05-13T03:57:42.760Z,5.20
2019-05-13T04:00:47.178Z,5.20
2019-05-13T04:03:52.798Z,5.20
2019-05-13T04:06:57.360Z,5.20
2019-05-13T04:10:03.639Z,5.10
2019-05-13T04:13:08.135Z,5.40
2019-05-13T04:16:13.353Z,5.60
2019-05-13T04:19:17.797Z,5.90
2019-05-13T04:22:22.983Z,6.20
2019-05-13T04:25:27.783Z,6.50
2019-05-13T04:28:33.307Z,6.90
2019-05-13T04:31:43.989Z,7.30
2019-05-13T04:34:48.287Z,7.60
2019-05-13T04:37:53.067Z,8.00
2019-05-13T04:40:57.483Z,8.40
2019-05-13T04:44:02.636Z,9.00
2019-05-13T04:47:07.277Z,9.60
2019-05-13T04:50:12.832Z,10.40
2019-05-13T04:53:17.249Z,11.20
2019-05-13T04:56:22.342Z,12.00
2019-05-13T04:59:27.010Z,12.70
2019-05-13T05:03:22.704Z,13.40
2019-05-13T05:06:42.337Z,13.90
2019-05-13T05:10:26.386Z,14.50
2019-05-13T05:14:02.703Z,15.00
2019-05-13T05:17:28.997Z,15.50
2019-05-13T05:20:51.931Z,16.00
2019-05-13T05:24:35.883Z,16.40
2019-05-13T05:28:05.961Z,16.70
2019-05-13T05:31:52.022Z,17.20
2019-05-13T05:35:52.362Z,17.50
2019-05-13T05:39:09.268Z,17.90
2019-05-13T05:42:16.073Z,18.30
2019-05-13T05:45:22.038Z,18.50
2019-05-13T05:48:28.442Z,18.60
2019-05-13T05:51:35.090Z,18.80
2019-05-13T05:54:42.209Z,18.90
2019-05-13T05:57:47.668Z,19.10
2019-05-13T06:00:56.102Z,19.30
2019-05-13T06:04:01.577Z,19.30
2019-05-13T06:07:06.193Z,19.40
2019-05-13T06:10:11.501Z,19.50
2019-05-13T06:13:16.255Z,19.30
2019-05-13T06:16:21.804Z,19.30
2019-05-13T06:19:26.310Z,19.40
2019-05-13T06:22:32.054Z,19.40
2019-05-13T06:25:37.023Z,19.50
2019-05-13T06:28:41.558Z,19.80
2019-05-13T06:31:46.048Z,19.90
2019-05-13T06:34:52.527Z,20.10
2019-05-13T06:37:56.801Z,20.20
2019-05-13T06:41:06.687Z,20.40
2019-05-13T06:44:08.374Z,20.70
2019-05-13T06:47:12.677Z,20.90
2019-05-13T06:50:16.979Z,20.90
2019-05-13T06:53:21.861Z,20.90
2019-05-13T06:56:26.669Z,20.90
2019-05-13T06:59:31.604Z,20.90
2019-05-13T07:02:36.444Z,20.90
2019-05-13T07:05:42.358Z,20.90
2019-05-13T07:08:46.811Z,20.90
2019-05-13T07:11:51.903Z,20.80
2019-05-13T07:14:57.296Z,20.70
2019-05-13T07:18:02.416Z,20.80
2019-05-13T07:21:06.891Z,20.80
2019-05-13T07:24:12.743Z,20.70
2019-05-13T07:27:17.349Z,20.60
2019-05-13T07:30:45.314Z,20.10
2019-05-13T07:33:51.773Z,19.50
2019-05-13T07:36:56.158Z,19.10
2019-05-13T07:40:02.638Z,18.90
2019-05-13T07:43:06.713Z,18.70
2019-05-13T07:46:12.586Z,18.60
2019-05-13T07:49:17.038Z,18.60
2019-05-13T07:52:22.777Z,18.70
2019-05-13T07:55:27.311Z,18.60
2019-05-13T07:58:36.523Z,18.40
2019-05-13T08:01:38.032Z,18.10
2019-05-13T08:04:42.980Z,18.00
2019-05-13T08:07:47.299Z,17.80
2019-05-13T08:10:52.089Z,17.80
2019-05-13T08:13:56.969Z,17.80
2019-05-13T08:17:02.601Z,17.70
2019-05-13T08:20:07.666Z,17.60
2019-05-13T08:23:12.322Z,17.60
2019-05-13T08:26:16.757Z,17.60
2019-05-13T08:29:22.628Z,17.40
2019-05-13T08:32:26.955Z,17.50
2019-05-13T08:35:31.766Z,17.60
2019-05-13T08:38:36.702Z,17.50
2019-05-13T09:30:03.596Z,16.50
2019-05-13T09:33:08.022Z,17.30
2019-05-13T09:36:12.743Z,17.70
2019-05-13T09:39:17.048Z,18.20
2019-05-13T09:42:21.859Z,18.90
2019-05-13T09:45:26.583Z,19.40
2019-05-13T09:48:32.114Z,19.30
2019-05-13T09:51:36.588Z,19.10
2019-05-13T09:54:42.450Z,19.10
2019-05-13T09:57:47.281Z,19.20
2019-05-13T10:00:52.938Z,19.50
2019-05-13T10:03:58.261Z,19.70
2019-05-13T10:07:02.914Z,19.90
2019-05-13T10:10:08.313Z,19.80
2019-05-13T10:13:15.532Z,19.30
2019-05-13T10:16:21.766Z,19.40
2019-05-13T10:19:25.800Z,19.60
2019-05-13T10:22:31.928Z,19.40
2019-05-13T10:25:36.979Z,19.20
2019-05-13T10:28:42.658Z,19.50
2019-05-13T10:31:48.014Z,19.80
2019-05-13T10:34:54.155Z,19.50
2019-05-13T10:37:58.667Z,19.20
2019-05-13T10:41:03.700Z,19.10
2019-05-13T10:44:11.863Z,19.00
2019-05-13T10:47:14.702Z,19.50
2019-05-13T10:50:21.606Z,19.60
2019-05-13T10:53:25.501Z,19.30
2019-05-13T10:56:32.760Z,19.30
2019-05-13T10:59:35.864Z,19.40
2019-05-13T11:02:42.425Z,19.40
2019-05-13T11:05:47.930Z,19.30
2019-05-13T11:08:53.665Z,19.40
2019-05-13T11:12:02.036Z,19.50
2019-05-13T11:15:06.550Z,19.20
2019-05-13T11:18:19.136Z,19.10
2019-05-13T11:21:17.155Z,19.10
2019-05-13T11:24:23.005Z,19.00
2019-05-13T11:27:27.482Z,18.40
2019-05-13T11:30:32.034Z,18.30
2019-05-13T11:33:36.455Z,18.80
2019-05-13T11:36:43.070Z,19.30
2019-05-13T11:39:47.182Z,19.20
2019-05-13T11:42:52.636Z,18.30
2019-05-13T11:45:57.228Z,17.70
2019-05-13T11:49:02.734Z,17.30
2019-05-13T11:52:07.685Z,17.40
2019-05-13T11:55:15.008Z,17.50
2019-05-13T11:58:19.301Z,17.80
2019-05-13T12:01:23.981Z,18.00
2019-05-13T12:04:47.445Z,18.10
2019-05-13T12:07:53.472Z,18.20
2019-05-13T12:10:58.073Z,18.20
2019-05-13T12:14:02.749Z,18.40
2019-05-13T12:17:07.146Z,18.20
2019-05-13T12:20:12.880Z,18.00
2019-05-13T12:23:17.258Z,17.80
2019-05-13T12:26:23.744Z,17.60
2019-05-13T12:29:28.097Z,17.40
2019-05-13T12:32:32.742Z,17.20
2019-05-13T12:35:37.129Z,16.90
2019-05-13T12:38:44.260Z,16.30
2019-05-13T12:41:47.567Z,15.90
2019-05-13T12:45:04.108Z,15.40
2019-05-13T12:48:03.161Z,15.30
2019-05-13T12:51:13.980Z,15.10
2019-05-13T12:54:18.404Z,15.00
2019-05-13T12:57:23.312Z,15.00
2019-05-13T13:00:28.173Z,15.30
2019-05-13T13:03:33.179Z,15.50
2019-05-13T13:06:41.710Z,15.70
2019-05-13T13:09:43.768Z,15.80
2019-05-13T13:12:49.162Z,15.80
2019-05-13T13:15:53.580Z,15.60
2019-05-13T13:18:57.953Z,15.60
2019-05-13T13:22:07.299Z,15.30
2019-05-13T13:25:09.021Z,15.10
2019-05-13T13:28:15.671Z,15.00
2019-05-13T13:31:42.728Z,14.70
2019-05-13T13:34:45.231Z,14.50
2019-05-13T13:37:52.843Z,14.50
2019-05-13T13:40:55.556Z,14.30
2019-05-13T13:44:05.419Z,14.30
2019-05-13T13:47:06.403Z,14.30
2019-05-13T13:50:11.739Z,14.50
2019-05-13T13:53:18.224Z,14.80
2019-05-13T13:56:25.429Z,15.20
2019-05-13T13:59:35.866Z,15.60
2019-05-13T14:02:39.079Z,15.90
2019-05-13T14:05:43.474Z,16.10
2019-05-13T14:08:47.822Z,16.10
2019-05-13T14:11:52.149Z,15.80
2019-05-13T14:15:15.808Z,15.70
2019-05-13T14:18:26.372Z,15.30
2019-05-13T14:21:26.166Z,15.00
2019-05-13T14:24:33.214Z,14.80
2019-05-13T14:27:41.794Z,14.40
2019-05-13T14:30:45.267Z,14.30
2019-05-13T14:33:52.072Z,14.10
2019-05-13T14:37:15.231Z,14.00
2019-05-13T14:40:22.442Z,14.00
2019-05-13T14:43:28.215Z,13.80
2019-05-13T14:46:46.724Z,13.70
2019-05-13T14:49:38.701Z,13.60
2019-05-13T14:52:43.085Z,13.60
2019-05-13T14:55:48.979Z,13.50
2019-05-13T14:58:53.387Z,13.60
2019-05-13T15:01:57.751Z,13.60
2019-05-13T15:05:02.768Z,13.60
2019-05-13T15:08:07.351Z,13.60
2019-05-13T15:11:12.521Z,13.80
2019-05-13T15:14:17.120Z,13.80
2019-05-13T15:17:21.882Z,13.90
2019-05-13T15:20:26.458Z,13.90
2019-05-13T15:23:32.305Z,13.90
2019-05-13T15:26:36.611Z,14.00
2019-05-13T15:29:42.051Z,13.90
2019-05-13T15:32:46.429Z,13.90
2019-05-13T15:35:51.955Z,13.80
2019-05-13T15:38:56.601Z,13.80
2019-05-13T15:42:01.931Z,13.80
2019-05-13T15:45:07.223Z,13.70
2019-05-13T15:48:11.694Z,13.70
2019-05-13T15:51:16.152Z,13.70
2019-05-13T15:54:22.097Z,13.80
2019-05-13T15:57:26.651Z,13.80
2019-05-13T16:00:31.337Z,13.70
2019-05-13T16:03:35.692Z,13.80
2019-05-13T16:06:41.813Z,13.70
2019-05-13T16:09:46.046Z,13.90
2019-05-13T16:12:51.822Z,13.90
2019-05-13T16:15:56.421Z,14.00
2019-05-13T16:19:00.791Z,14.10
2019-05-13T16:22:05.223Z,14.30
2019-05-13T16:25:09.789Z,14.40
2019-05-13T16:28:16.015Z,14.40
2019-05-13T16:31:20.380Z,14.40
2019-05-13T16:34:24.706Z,14.60
2019-05-13T16:37:31.236Z,14.60
2019-05-13T16:40:36.677Z,14.50
2019-05-13T16:43:42.646Z,14.50
2019-05-13T16:46:47.308Z,14.30
2019-05-13T16:49:51.938Z,14.20
2019-05-13T16:52:56.268Z,14.10
2019-05-13T16:56:01.775Z,13.90
2019-05-13T16:59:06.375Z,13.70
2019-05-13T17:02:12.618Z,13.50
2019-05-13T17:05:17.253Z,13.50
2019-05-13T17:08:21.584Z,13.20
2019-05-13T17:11:45.051Z,13.10
2019-05-13T17:14:49.440Z,13.10
2019-05-13T17:18:08.433Z,12.90
2019-05-13T17:21:01.725Z,12.90
2019-05-13T17:24:06.233Z,12.70
2019-05-13T17:27:12.163Z,12.70
2019-05-13T17:30:16.962Z,12.70
2019-05-13T17:33:23.052Z,12.60
2019-05-13T17:36:27.581Z,12.60
2019-05-13T17:39:32.246Z,12.40
2019-05-13T17:42:36.710Z,12.40
2019-05-13T17:45:41.687Z,12.30
2019-05-13T17:48:46.255Z,12.40
2019-05-13T17:51:51.686Z,12.40
2019-05-13T17:54:56.277Z,12.30
2019-05-13T17:58:01.444Z,12.20
2019-05-13T18:01:05.896Z,12.20
2019-05-13T18:04:11.759Z,12.00
2019-05-13T18:07:16.401Z,11.90
2019-05-13T18:10:22.542Z,11.80
2019-05-13T18:13:27.443Z,11.80
2019-05-13T18:16:32.879Z,11.70
2019-05-13T18:19:37.256Z,11.60
2019-05-13T18:22:42.148Z,11.40
2019-05-13T18:25:47.509Z,11.40
2019-05-13T18:28:51.902Z,11.40
2019-05-13T18:31:56.285Z,11.30
2019-05-13T18:35:01.673Z,11.20
2019-05-13T18:38:06.308Z,11.10
2019-05-13T18:41:11.990Z,10.90
2019-05-13T18:44:16.543Z,10.80
2019-05-13T18:47:22.115Z,10.70
2019-05-13T18:50:26.854Z,10.60
2019-05-13T18:53:32.075Z,10.40
2019-05-13T18:56:36.693Z,10.30
2019-05-13T18:59:42.748Z,10.10
2019-05-13T19:02:47.688Z,9.90
2019-05-13T19:05:52.096Z,9.90
2019-05-13T19:08:56.452Z,9.80
2019-05-13T19:12:03.436Z,9.60
2019-05-13T19:15:11.368Z,9.50
2019-05-13T19:18:15.889Z,9.40
2019-05-13T19:21:21.907Z,9.30
2019-05-13T19:24:45.440Z,9.30
2019-05-13T19:27:51.712Z,9.20
2019-05-13T19:30:56.909Z,9.10
2019-05-13T19:34:01.551Z,8.80
2019-05-13T19:37:06.031Z,8.80
2019-05-13T19:40:31.260Z,8.70
2019-05-13T19:43:36.921Z,8.60
2019-05-13T19:46:42.092Z,8.70
2019-05-13T19:49:58.291Z,8.60
2019-05-13T19:53:02.704Z,8.50
2019-05-13T19:56:07.048Z,8.50
2019-05-13T19:59:12.429Z,8.50
2019-05-13T20:02:17.071Z,8.40
2019-05-13T20:05:23.214Z,8.40
2019-05-13T20:08:27.410Z,8.50
2019-05-13T20:11:31.797Z,8.40
2019-05-13T20:14:36.202Z,8.60
2019-05-13T20:17:41.574Z,8.60
2019-05-13T20:20:46.149Z,8.60
2019-05-13T20:23:51.894Z,8.60
2019-05-13T20:26:56.247Z,8.60
2019-05-13T20:30:01.616Z,8.70
2019-05-13T20:33:06.241Z,8.70
2019-05-13T20:36:11.853Z,8.70
2019-05-13T20:39:16.338Z,8.80
2019-05-13T20:42:20.636Z,8.70
2019-05-13T20:45:24.945Z,8.90
2019-05-13T20:48:31.780Z,8.90
2019-05-13T20:51:35.340Z,9.00
2019-05-13T20:54:41.598Z,9.00
2019-05-13T20:57:45.657Z,9.10
2019-05-13T21:00:51.507Z,9.10
2019-05-13T21:03:55.945Z,9.20
2019-05-13T21:07:02.112Z,9.30
2019-05-13T21:10:06.326Z,9.40
2019-05-13T21:13:12.231Z,9.40
2019-05-13T21:16:16.693Z,9.50
2019-05-13T21:19:22.062Z,9.50
2019-05-13T21:22:26.536Z,9.50
2019-05-13T21:25:31.195Z,9.50
2019-05-13T21:28:35.570Z,9.50
2019-05-13T21:31:41.423Z,9.50
2019-05-13T21:34:45.937Z,9.50
2019-05-13T21:37:51.219Z,9.50
2019-05-13T21:40:55.722Z,9.50
2019-05-13T21:44:01.265Z,9.40
2019-05-13T21:47:05.697Z,9.40
2019-05-13T21:50:11.556Z,9.40
2019-05-13T21:53:16.068Z,9.50
2019-05-13T21:56:22.958Z,9.40
2019-05-13T21:59:26.346Z,9.40
2019-05-13T22:02:31.725Z,9.20
2019-05-13T22:05:36.094Z,9.20
2019-05-13T22:08:41.293Z,9.20
2019-05-13T22:11:45.878Z,9.10
2019-05-13T22:14:51.720Z,9.00
2019-05-13T22:17:56.286Z,8.80
2019-05-13T22:21:01.326Z,8.80
2019-05-13T22:24:05.915Z,8.80
2019-05-13T22:27:13.004Z,8.80
2019-05-13T22:30:16.983Z,8.80
2019-05-13T22:33:21.693Z,8.70
2019-05-13T22:36:25.965Z,8.70
2019-05-13T22:39:34.474Z,8.60
2019-05-13T22:42:36.374Z,8.60
2019-05-13T22:45:41.884Z,8.70
2019-05-13T22:48:46.534Z,8.80
2019-05-13T22:51:51.571Z,8.80
2019-05-13T22:54:56.091Z,8.90
2019-05-13T22:58:01.548Z,8.80
2019-05-13T23:01:06.029Z,8.70
2019-05-13T23:04:11.468Z,8.60
2019-05-13T23:07:15.999Z,8.60
2019-05-13T23:10:22.498Z,8.60
2019-05-13T23:13:26.399Z,8.50
2019-05-13T23:16:31.595Z,8.50
2019-05-13T23:19:36.204Z,8.50
2019-05-13T23:22:41.488Z,8.40
2019-05-13T23:25:46.116Z,8.50
2019-05-13T23:28:52.181Z,8.50
2019-05-13T23:31:56.686Z,8.40
2019-05-13T23:35:02.010Z,8.30
2019-05-13T23:38:06.619Z,8.30
2019-05-13T23:41:12.134Z,8.30
2019-05-13T23:44:25.049Z,8.30
2019-05-13T23:47:43.356Z,8.20
2019-05-13T23:50:47.772Z,8.10
2019-05-13T23:53:52.066Z,8.30
2019-05-13T23:56:56.390Z,8.10
